Alcira, Spain
Current Conditions -  °F | °C
As of 1:00 AM on Wednesday 26 Nov 2014 (Local Time) from LEVC Reporting Station
Broken Clouds Broken Clouds  
Wind Chill: 16°   Ceiling: 6000
Heat Index: 16°   Visibility: 6mi
Dew Point: 12°   Wind: 6mph
Humidity: 77%   Direction: 280°W
Pressure: 29.97"   Gusts: NA
Location:  39.15°N, 0.44°W
Report Text: LEVC 260000Z 28005KT 9999 FEW025 BKN060 16/12 Q1015 NOSIG
Loading
Personal Weather Stations






























Interactive Weather Map New forecast layout! Learn more

10-Day Weather Forecast

Advertisements
Track Severe Weather on mobile